Time,TemperatureF,DewpointF,PressureIn,WindDirection,WindDirectionDegrees,WindSpeedMPH,WindSpeedGustMPH,Humidity,HourlyPrecipIn,Conditions,Clouds,dailyrainin,SoftwareType,DateUTC
2013-02-22 00:02:00,68.2,65.5,30.03,SE,140,1.0,1.0,91,0.00,,,0.00,Wunderground v.1.15,2013-02-21 13:02:00,
2013-02-22 00:08:00,68.1,65.4,30.03,SSE,158,0.0,1.0,91,0.00,,,0.00,Wunderground v.1.15,2013-02-21 13:08:00,
2013-02-22 00:13:00,68.0,65.3,30.03,SSW,193,0.0,1.0,91,0.00,,,0.00,Wunderground v.1.15,2013-02-21 13:13:00,
2013-02-22 00:18:00,67.7,65.0,30.03,SSW,193,0.0,1.0,91,0.00,,,0.00,Wunderground v.1.15,2013-02-21 13:18:00,
2013-02-22 00:23:00,67.4,64.7,30.03,SSW,193,0.0,0.0,91,0.00,,,0.00,Wunderground v.1.15,2013-02-21 13:23:00,
2013-02-22 00:29:00,67.1,64.7,30.03,SW,214,0.0,0.0,92,0.00,,,0.00,Wunderground v.1.15,2013-02-21 13:29:00,
2013-02-22 00:35:00,66.8,64.4,30.03,SW,214,0.0,0.0,92,0.00,,,0.00,Wunderground v.1.15,2013-02-21 13:35:00,
2013-02-22 00:40:00,67.0,64.6,30.03,SSW,202,0.0,1.0,92,0.04,,,-99.99,WeatherLink 5.9.3,2013-02-21 13:40:00,
2013-02-22 00:46:00,66.5,64.4,30.03,SW,214,0.0,0.0,93,0.00,,,0.00,Wunderground v.1.15,2013-02-21 13:46:00,
2013-02-22 00:51:00,66.5,64.4,30.03,WNW,288,0.0,0.0,93,0.00,,,0.00,Wunderground v.1.15,2013-02-21 13:51:00,
2013-02-22 00:56:00,66.6,64.5,30.03,WSW,255,0.0,0.0,93,0.00,,,0.00,Wunderground v.1.15,2013-02-21 13:56:00,
2013-02-22 01:01:00,66.6,64.5,30.03,South,184,0.0,1.0,93,0.00,,,0.00,Wunderground v.1.15,2013-02-21 14:01:00,
2013-02-22 01:07:00,66.7,64.6,30.02,SSW,204,2.0,2.0,93,0.00,,,0.00,Wunderground v.1.15,2013-02-21 14:07:00,
2013-02-22 01:12:00,66.8,64.7,30.02,ESE,119,0.0,1.0,93,0.00,,,0.00,Wunderground v.1.15,2013-02-21 14:12:00,
2013-02-22 01:17:00,67.0,64.9,30.02,South,181,0.0,1.0,93,0.00,,,0.00,Wunderground v.1.15,2013-02-21 14:17:00,
2013-02-22 01:23:00,67.1,64.4,30.02,SSE,165,0.0,1.0,91,0.00,,,0.00,Wunderground v.1.15,2013-02-21 14:23:00,
2013-02-22 01:29:00,67.2,64.2,30.02,SSE,152,0.0,1.0,90,0.00,,,0.00,Wunderground v.1.15,2013-02-21 14:29:00,
2013-02-22 01:35:00,67.3,63.9,30.01,South,180,1.0,1.0,89,0.00,,,0.00,Wunderground v.1.15,2013-02-21 14:35:00,
2013-02-22 01:40:00,67.2,64.2,30.02,SSE,157,0.0,1.0,90,0.00,,,-99.99,WeatherLink 5.9.3,2013-02-21 14:40:00,
2013-02-22 01:46:00,67.0,63.3,30.01,SW,217,0.0,1.0,88,0.00,,,0.00,Wunderground v.1.15,2013-02-21 14:46:00,
2013-02-22 01:51:00,66.9,63.2,30.01,SSW,200,1.0,1.0,88,0.00,,,0.00,Wunderground v.1.15,2013-02-21 14:51:00,
2013-02-22 01:56:00,66.7,63.0,30.01,SSW,199,0.0,1.0,88,0.00,,,0.00,Wunderground v.1.15,2013-02-21 14:56:00,
2013-02-22 02:01:00,66.5,62.8,30.01,SSW,192,0.0,0.0,88,0.00,,,0.00,Wunderground v.1.15,2013-02-21 15:01:00,
2013-02-22 02:06:00,66.3,63.0,30.01,SSW,193,0.0,0.0,89,0.00,,,0.00,Wunderground v.1.15,2013-02-21 15:06:00,
2013-02-22 02:11:00,66.0,62.7,30.01,SSW,195,0.0,0.0,89,0.00,,,0.00,Wunderground v.1.15,2013-02-21 15:11:00,
2013-02-22 02:16:00,66.0,63.0,30.00,SSW,195,0.0,1.0,90,0.00,,,0.00,Wunderground v.1.15,2013-02-21 15:16:00,
2013-02-22 02:21:00,65.8,62.8,30.00,SSW,195,0.0,0.0,90,0.00,,,0.00,Wunderground v.1.15,2013-02-21 15:21:00,
2013-02-22 02:26:00,65.6,62.6,30.00,West,264,0.0,1.0,90,0.00,,,0.00,Wunderground v.1.15,2013-02-21 15:26:00,
2013-02-22 02:32:00,65.4,62.4,30.01,West,264,0.0,0.0,90,0.00,,,0.00,Wunderground v.1.15,2013-02-21 15:32:00,
2013-02-22 02:37:00,65.3,62.3,30.01,WNW,286,0.0,1.0,90,0.00,,,0.00,Wunderground v.1.15,2013-02-21 15:37:00,
2013-02-22 02:42:00,65.2,62.5,30.00,WSW,245,0.0,1.0,91,0.00,,,0.00,Wunderground v.1.15,2013-02-21 15:42:00,
2013-02-22 02:47:00,65.2,62.5,30.00,WNW,289,0.0,1.0,91,0.00,,,0.00,Wunderground v.1.15,2013-02-21 15:47:00,
2013-02-22 02:52:00,65.2,62.5,30.00,WSW,257,0.0,0.0,91,0.00,,,0.00,Wunderground v.1.15,2013-02-21 15:52:00,
2013-02-22 02:57:00,65.2,62.8,30.00,WSW,257,0.0,0.0,92,0.00,,,0.00,Wunderground v.1.15,2013-02-21 15:57:00,
2013-02-22 03:02:00,65.4,63.0,30.00,WSW,257,0.0,0.0,92,0.00,,,0.00,Wunderground v.1.15,2013-02-21 16:02:00,
2013-02-22 03:07:00,65.5,63.1,30.00,South,180,0.0,1.0,92,0.00,,,0.00,Wunderground v.1.15,2013-02-21 16:07:00,
2013-02-22 03:12:00,65.8,63.4,30.00,SSE,160,0.0,1.0,92,0.00,,,0.00,Wunderground v.1.15,2013-02-21 16:12:00,
2013-02-22 03:17:00,66.0,63.3,30.00,SSW,205,1.0,3.0,91,0.00,,,0.00,Wunderground v.1.15,2013-02-21 16:17:00,
2013-02-22 03:22:00,66.6,63.9,30.00,ESE,117,0.0,1.0,91,0.00,,,0.00,Wunderground v.1.15,2013-02-21 16:22:00,
2013-02-22 03:27:00,67.0,64.0,30.00,SSE,168,0.0,3.0,90,0.00,,,0.00,Wunderground v.1.15,2013-02-21 16:27:00,
2013-02-22 03:32:00,67.3,63.9,30.00,SSE,166,0.0,4.0,89,0.00,,,0.00,Wunderground v.1.15,2013-02-21 16:32:00,
2013-02-22 03:37:00,67.4,63.7,29.99,SE,136,0.0,4.0,88,0.00,,,0.00,Wunderground v.1.15,2013-02-21 16:37:00,
2013-02-22 03:42:00,67.4,63.7,29.99,South,188,1.0,1.0,88,0.00,,,0.00,Wunderground v.1.15,2013-02-21 16:42:00,
2013-02-22 03:47:00,67.5,63.8,29.99,SSE,161,0.0,5.0,88,0.00,,,0.00,Wunderground v.1.15,2013-02-21 16:47:00,
2013-02-22 03:52:00,67.6,63.6,29.99,SSW,193,0.0,1.0,87,0.00,,,0.00,Wunderground v.1.15,2013-02-21 16:52:00,
2013-02-22 03:57:00,67.5,63.5,29.99,SSE,147,0.0,1.0,87,0.00,,,0.00,Wunderground v.1.15,2013-02-21 16:57:00,
2013-02-22 04:02:00,67.5,63.5,29.99,SSW,193,0.0,1.0,87,0.00,,,0.00,Wunderground v.1.15,2013-02-21 17:02:00,
2013-02-22 04:07:00,67.5,63.5,29.99,South,178,1.0,3.0,87,0.00,,,0.00,Wunderground v.1.15,2013-02-21 17:07:00,
2013-02-22 04:12:00,67.6,63.6,29.99,SE,131,1.0,3.0,87,0.00,,,0.00,Wunderground v.1.15,2013-02-21 17:12:00,
2013-02-22 04:17:00,67.6,63.6,29.99,SSE,165,0.0,3.0,87,0.00,,,0.00,Wunderground v.1.15,2013-02-21 17:17:00,
2013-02-22 04:22:00,67.6,63.6,29.99,SSE,155,2.0,4.0,87,0.00,,,0.00,Wunderground v.1.15,2013-02-21 17:22:00,
2013-02-22 04:27:00,67.7,63.4,29.99,SSW,203,2.0,4.0,86,0.00,,,0.00,Wunderground v.1.15,2013-02-21 17:27:00,
2013-02-22 04:32:00,67.8,63.1,29.99,SSE,166,0.0,2.0,85,0.00,,,0.00,Wunderground v.1.15,2013-02-21 17:32:00,
2013-02-22 04:37:00,67.9,63.2,29.99,South,188,2.0,2.0,85,0.00,,,0.00,Wunderground v.1.15,2013-02-21 17:37:00,
2013-02-22 04:42:00,68.1,63.8,29.99,SSW,200,1.0,4.0,86,0.00,,,0.00,Wunderground v.1.15,2013-02-21 17:42:00,
2013-02-22 04:47:00,68.2,63.9,29.99,South,184,2.0,4.0,86,0.00,,,0.00,Wunderground v.1.15,2013-02-21 17:47:00,
2013-02-22 04:52:00,68.3,63.9,29.99,South,173,0.0,1.0,86,0.00,,,0.00,Wunderground v.1.15,2013-02-21 17:52:00,
2013-02-22 04:57:00,68.3,63.9,29.99,SSW,206,0.0,2.0,86,0.00,,,0.00,Wunderground v.1.15,2013-02-21 17:57:00,
2013-02-22 05:02:00,68.2,63.9,29.99,SW,221,1.0,2.0,86,0.00,,,0.00,Wunderground v.1.15,2013-02-21 18:02:00,
2013-02-22 05:07:00,68.3,63.9,29.99,SSE,150,1.0,3.0,86,0.00,,,0.00,Wunderground v.1.15,2013-02-21 18:07:00,
2013-02-22 05:12:00,68.3,63.9,29.99,SSE,168,2.0,2.0,86,0.00,,,0.00,Wunderground v.1.15,2013-02-21 18:12:00,
2013-02-22 05:17:00,68.4,64.0,29.99,SE,143,0.0,2.0,86,0.00,,,0.00,Wunderground v.1.15,2013-02-21 18:17:00,
2013-02-22 05:22:00,68.3,63.9,29.99,SSE,158,0.0,2.0,86,0.00,,,0.00,Wunderground v.1.15,2013-02-21 18:22:00,
2013-02-22 05:27:00,68.1,63.8,29.99,South,171,0.0,2.0,86,0.00,,,0.00,Wunderground v.1.15,2013-02-21 18:27:00,
2013-02-22 05:32:00,67.8,63.5,29.99,South,171,0.0,0.0,86,0.00,,,0.00,Wunderground v.1.15,2013-02-21 18:32:00,
2013-02-22 05:37:00,67.3,63.3,29.99,South,172,0.0,0.0,87,0.00,,,0.00,Wunderground v.1.15,2013-02-21 18:37:00,
2013-02-22 05:42:00,66.9,62.9,29.99,South,172,0.0,0.0,87,0.00,,,0.00,Wunderground v.1.15,2013-02-21 18:42:00,
2013-02-22 05:47:00,66.6,62.9,29.99,South,172,0.0,0.0,88,0.00,,,0.00,Wunderground v.1.15,2013-02-21 18:47:00,
2013-02-22 05:53:00,66.2,62.9,29.99,South,172,0.0,0.0,89,0.00,,,0.00,Wunderground v.1.15,2013-02-21 18:53:00,
2013-02-22 05:57:00,66.0,62.7,29.99,South,172,0.0,0.0,89,0.00,,,0.00,Wunderground v.1.15,2013-02-21 18:57:00,
2013-02-22 06:02:00,65.7,62.7,29.99,South,171,0.0,0.0,90,0.00,,,0.00,Wunderground v.1.15,2013-02-21 19:02:00,
2013-02-22 06:07:00,65.6,62.6,29.99,SW,219,0.0,1.0,90,0.00,,,0.00,Wunderground v.1.15,2013-02-21 19:07:00,
2013-02-22 06:12:00,65.7,63.0,30.00,SSW,199,0.0,0.0,91,0.00,,,0.00,Wunderground v.1.15,2013-02-21 19:12:00,
2013-02-22 06:18:00,65.7,63.0,30.00,SSW,197,0.0,1.0,91,0.00,,,0.00,Wunderground v.1.15,2013-02-21 19:18:00,
2013-02-22 06:23:00,66.0,63.6,30.00,SSE,161,0.0,1.0,92,0.00,,,0.00,Wunderground v.1.15,2013-02-21 19:23:00,
2013-02-22 06:28:00,66.2,63.8,30.00,South,185,0.0,2.0,92,0.00,,,0.00,Wunderground v.1.15,2013-02-21 19:28:00,
2013-02-22 06:33:00,66.4,64.0,30.00,South,180,0.0,3.0,92,0.00,,,0.00,Wunderground v.1.15,2013-02-21 19:33:00,
2013-02-22 06:38:00,66.7,64.0,30.00,South,180,0.0,4.0,91,0.00,,,0.00,Wunderground v.1.15,2013-02-21 19:38:00,
2013-02-22 06:43:00,67.0,64.0,30.00,East,82,1.0,2.0,90,0.00,,,0.00,Wunderground v.1.15,2013-02-21 19:43:00,
2013-02-22 06:48:00,67.3,63.9,30.00,SSE,168,1.0,2.0,89,0.00,,,0.00,Wunderground v.1.15,2013-02-21 19:48:00,
2013-02-22 06:53:00,67.5,64.1,30.00,SW,223,1.0,1.0,89,0.00,,,0.00,Wunderground v.1.15,2013-02-21 19:53:00,
2013-02-22 06:58:00,67.6,63.9,30.01,South,171,0.0,4.0,88,0.00,,,0.00,Wunderground v.1.15,2013-02-21 19:58:00,
2013-02-22 07:04:00,67.7,64.0,30.01,South,180,0.0,2.0,88,0.00,,,0.00,Wunderground v.1.15,2013-02-21 20:04:00,
2013-02-22 07:09:00,67.9,63.9,30.01,South,171,0.0,3.0,87,0.00,,,0.00,Wunderground v.1.15,2013-02-21 20:09:00,
2013-02-22 07:14:00,68.3,63.9,30.01,NE,52,0.0,5.0,86,0.00,,,0.00,Wunderground v.1.15,2013-02-21 20:14:00,
2013-02-22 07:19:00,68.7,64.3,30.02,SSE,163,2.0,5.0,86,0.00,,,0.00,Wunderground v.1.15,2013-02-21 20:19:00,
2013-02-22 07:24:00,68.9,64.2,30.02,SE,145,1.0,3.0,85,0.00,,,0.00,Wunderground v.1.15,2013-02-21 20:24:00,
2013-02-22 07:29:00,69.2,64.2,30.02,SE,146,2.0,5.0,84,0.00,,,0.00,Wunderground v.1.15,2013-02-21 20:29:00,
2013-02-22 07:34:00,69.4,64.0,30.02,ENE,72,4.0,6.0,83,0.00,,,0.00,Wunderground v.1.15,2013-02-21 20:34:00,
2013-02-22 07:39:00,69.5,63.8,30.02,SSE,159,1.0,6.0,82,0.00,,,0.00,Wunderground v.1.15,2013-02-21 20:39:00,
2013-02-22 07:44:00,69.7,63.6,30.02,SSE,158,3.0,8.0,81,0.00,,,0.00,Wunderground v.1.15,2013-02-21 20:44:00,
2013-02-22 07:49:00,69.8,63.7,30.02,SSW,204,2.0,8.0,81,0.00,,,0.00,Wunderground v.1.15,2013-02-21 20:49:00,
2013-02-22 07:54:00,69.9,63.8,30.02,ESE,105,3.0,6.0,81,0.00,,,0.00,Wunderground v.1.15,2013-02-21 20:54:00,
2013-02-22 07:59:00,69.9,63.8,30.02,ESE,112,7.0,8.0,81,0.00,,,0.00,Wunderground v.1.15,2013-02-21 20:59:00,
2013-02-22 08:04:00,70.0,63.9,30.02,SSE,158,3.0,5.0,81,0.00,,,0.00,Wunderground v.1.15,2013-02-21 21:04:00,
2013-02-22 08:09:00,70.0,63.9,30.02,SSE,166,3.0,5.0,81,0.00,,,0.00,Wunderground v.1.15,2013-02-21 21:09:00,
2013-02-22 08:14:00,70.0,64.2,30.02,SE,134,0.0,6.0,82,0.00,,,0.00,Wunderground v.1.15,2013-02-21 21:14:00,
2013-02-22 08:19:00,70.2,64.4,30.02,SSE,155,2.0,6.0,82,0.00,,,0.00,Wunderground v.1.15,2013-02-21 21:19:00,
2013-02-22 08:24:00,70.4,64.6,30.02,South,173,1.0,4.0,82,0.00,,,0.00,Wunderground v.1.15,2013-02-21 21:24:00,
2013-02-22 08:30:00,70.7,64.9,30.03,SSW,205,1.0,4.0,82,0.00,,,0.00,Wunderground v.1.15,2013-02-21 21:30:00,
2013-02-22 08:35:00,71.1,65.3,30.03,South,191,0.0,3.0,82,0.00,,,0.00,Wunderground v.1.15,2013-02-21 21:35:00,
2013-02-22 08:40:00,71.6,65.8,30.03,South,176,2.0,3.0,82,0.00,,,0.00,Wunderground v.1.15,2013-02-21 21:40:00,
2013-02-22 08:45:00,72.2,65.7,30.03,ENE,72,0.0,3.0,80,0.00,,,0.00,Wunderground v.1.15,2013-02-21 21:45:00,
2013-02-22 08:50:00,72.5,66.0,30.03,SE,140,1.0,2.0,80,0.00,,,0.00,Wunderground v.1.15,2013-02-21 21:50:00,
2013-02-22 08:55:00,72.7,66.2,30.03,SSW,193,2.0,4.0,80,0.00,,,0.00,Wunderground v.1.15,2013-02-21 21:55:00,
2013-02-22 09:00:00,72.9,66.0,30.03,SSE,158,4.0,5.0,79,0.00,,,0.00,Wunderground v.1.15,2013-02-21 22:00:00,
2013-02-22 09:05:00,72.9,66.0,30.03,NW,304,0.0,5.0,79,0.00,,,0.00,Wunderground v.1.15,2013-02-21 22:05:00,
2013-02-22 09:10:00,73.2,65.9,30.03,ESE,122,1.0,2.0,78,0.00,,,0.00,Wunderground v.1.15,2013-02-21 22:10:00,
2013-02-22 09:15:00,73.1,65.8,30.03,West,271,3.0,5.0,78,0.00,,,0.00,Wunderground v.1.15,2013-02-21 22:15:00,
2013-02-22 09:20:00,73.2,65.9,30.03,SE,135,2.0,5.0,78,0.00,,,-99.99,WeatherLink 5.9.3,2013-02-21 22:20:00,
2013-02-22 09:25:00,72.9,66.4,30.03,SE,127,5.0,9.0,80,0.00,,,0.00,Wunderground v.1.15,2013-02-21 22:25:00,
2013-02-22 09:30:00,72.8,66.3,30.03,South,186,5.0,6.0,80,0.00,,,0.00,Wunderground v.1.15,2013-02-21 22:30:00,
2013-02-22 09:35:00,72.7,66.2,30.03,NE,55,2.0,6.0,80,0.00,,,0.00,Wunderground v.1.15,2013-02-21 22:35:00,
2013-02-22 09:40:00,73.0,66.8,30.03,SSE,165,2.0,5.0,81,0.00,,,0.00,Wunderground v.1.15,2013-02-21 22:40:00,
2013-02-22 09:45:00,73.6,67.4,30.03,SSE,160,2.0,5.0,81,0.00,,,0.00,Wunderground v.1.15,2013-02-21 22:45:00,
2013-02-22 09:50:00,73.8,66.9,30.03,SE,126,2.0,5.0,79,0.00,,,0.00,Wunderground v.1.15,2013-02-21 22:50:00,
2013-02-22 09:55:00,73.3,66.8,30.03,SW,218,4.0,7.0,80,0.00,,,0.00,Wunderground v.1.15,2013-02-21 22:55:00,
2013-02-22 10:00:00,72.4,66.6,30.03,ESE,122,2.0,3.0,82,0.00,,,0.01,Wunderground v.1.15,2013-02-21 23:00:00,
2013-02-22 10:05:00,72.3,66.8,30.03,SSE,150,3.0,6.0,83,0.00,,,0.01,Wunderground v.1.15,2013-02-21 23:05:00,
2013-02-22 10:11:00,72.4,66.6,30.03,SE,135,4.0,8.0,82,0.01,,,-99.99,WeatherLink 5.9.3,2013-02-21 23:11:00,
2013-02-22 10:16:00,73.0,67.2,30.03,East,96,3.0,6.0,82,0.00,,,0.01,Wunderground v.1.15,2013-02-21 23:16:00,
2013-02-22 10:21:00,72.6,67.1,30.03,SSE,157,2.0,6.0,83,0.01,,,-99.99,WeatherLink 5.9.3,2013-02-21 23:21:00,
2013-02-22 10:26:00,74.8,67.5,30.03,SSE,161,3.0,11.0,78,0.00,,,0.01,Wunderground v.1.15,2013-02-21 23:26:00,
2013-02-22 10:31:00,74.7,67.8,30.03,ENE,67,3.0,11.0,79,0.01,,,-99.99,WeatherLink 5.9.3,2013-02-21 23:31:00,
2013-02-22 10:36:00,75.3,67.2,30.03,SE,129,1.0,7.0,76,0.00,,,0.01,Wunderground v.1.15,2013-02-21 23:36:00,
2013-02-22 10:41:00,75.2,67.1,30.03,ESE,107,6.0,6.0,76,0.00,,,0.01,Wunderground v.1.15,2013-02-21 23:41:00,
2013-02-22 10:46:00,73.0,66.5,30.04,SE,141,5.0,16.0,80,0.20,,,0.03,Wunderground v.1.15,2013-02-21 23:46:00,
2013-02-22 10:51:00,72.0,65.8,30.03,North,352,3.0,9.0,81,0.08,,,0.03,Wunderground v.1.15,2013-02-21 23:51:00,
2013-02-22 10:56:00,72.0,65.1,30.03,ESE,121,4.0,18.0,79,0.05,,,0.03,Wunderground v.1.15,2013-02-21 23:56:00,
2013-02-22 11:01:00,72.1,65.9,30.04,ESE,112,5.0,13.0,81,0.03,,,-99.99,WeatherLink 5.9.3,2013-02-22 00:01:00,
2013-02-22 11:06:00,70.9,65.8,30.03,WSW,253,4.0,9.0,84,0.00,,,0.04,Wunderground v.1.15,2013-02-22 00:06:00,
2013-02-22 11:11:00,70.9,65.5,30.03,SSE,157,4.0,10.0,83,0.04,,,-99.99,WeatherLink 5.9.3,2013-02-22 00:11:00,
2013-02-22 11:16:00,70.0,64.6,30.03,SE,124,4.0,12.0,83,0.00,,,0.04,Wunderground v.1.15,2013-02-22 00:16:00,
2013-02-22 11:21:00,70.3,65.6,30.03,South,188,2.0,4.0,85,0.00,,,0.04,Wunderground v.1.15,2013-02-22 00:21:00,
2013-02-22 11:26:00,70.7,66.0,30.03,East,89,6.0,7.0,85,0.00,,,0.04,Wunderground v.1.15,2013-02-22 00:26:00,
2013-02-22 11:31:00,70.4,65.7,30.03,ENE,64,6.0,12.0,85,0.45,,,0.09,Wunderground v.1.15,2013-02-22 00:31:00,
2013-02-22 11:36:00,69.9,65.9,30.03,SSE,154,3.0,12.0,87,0.11,,,0.09,Wunderground v.1.15,2013-02-22 00:36:00,
2013-02-22 11:41:00,70.3,66.6,30.03,NNE,23,1.0,3.0,88,0.06,,,0.09,Wunderground v.1.15,2013-02-22 00:41:00,
2013-02-22 11:46:00,71.0,67.3,30.03,ESE,108,2.0,7.0,88,0.04,,,0.09,Wunderground v.1.15,2013-02-22 00:46:00,
2013-02-22 11:51:00,72.0,67.6,30.02,NE,44,3.0,5.0,86,0.00,,,0.09,Wunderground v.1.15,2013-02-22 00:51:00,
2013-02-22 11:56:00,73.2,67.7,30.02,East,79,4.0,8.0,83,0.00,,,0.09,Wunderground v.1.15,2013-02-22 00:56:00,
2013-02-22 12:01:00,74.2,68.3,30.02,ESE,105,3.0,5.0,82,0.00,,,0.09,Wunderground v.1.15,2013-02-22 01:01:00,
2013-02-22 12:06:00,73.2,67.0,30.03,West,265,7.0,16.0,81,1.21,,,0.19,Wunderground v.1.15,2013-02-22 01:06:00,
2013-02-22 12:11:00,71.0,65.9,30.03,South,185,10.0,10.0,84,0.14,,,0.21,Wunderground v.1.15,2013-02-22 01:11:00,
2013-02-22 12:16:00,70.5,66.1,30.02,NE,41,3.0,12.0,86,0.07,,,0.21,Wunderground v.1.15,2013-02-22 01:16:00,
2013-02-22 12:21:00,70.7,66.6,30.02,ESE,118,3.0,10.0,87,0.04,,,0.21,Wunderground v.1.15,2013-02-22 01:21:00,
2013-02-22 12:27:00,71.1,66.7,30.01,SSE,159,8.0,11.0,86,0.00,,,0.21,Wunderground v.1.15,2013-02-22 01:27:00,
2013-02-22 12:32:00,71.4,66.7,30.01,ENE,77,3.0,7.0,85,0.00,,,0.21,Wunderground v.1.15,2013-02-22 01:32:00,
2013-02-22 12:37:00,71.7,66.9,30.01,SSW,213,6.0,9.0,85,0.00,,,0.21,Wunderground v.1.15,2013-02-22 01:37:00,
2013-02-22 12:42:00,71.5,66.4,30.01,SE,124,2.0,7.0,84,0.00,,,0.21,Wunderground v.1.15,2013-02-22 01:42:00,
2013-02-22 12:47:00,71.6,66.8,30.01,East,96,4.0,8.0,85,0.00,,,0.21,Wunderground v.1.15,2013-02-22 01:47:00,
2013-02-22 12:52:00,72.4,68.0,30.01,South,186,5.0,8.0,86,0.00,,,0.21,Wunderground v.1.15,2013-02-22 01:52:00,
2013-02-22 12:57:00,73.3,68.5,30.01,ENE,58,1.0,8.0,85,0.00,,,0.21,Wunderground v.1.15,2013-02-22 01:57:00,
2013-02-22 13:02:00,74.2,68.3,30.01,SE,128,6.0,6.0,82,0.00,,,0.21,Wunderground v.1.15,2013-02-22 02:02:00,
2013-02-22 13:07:00,75.2,68.6,30.00,South,186,9.0,15.0,80,0.00,,,0.21,Wunderground v.1.15,2013-02-22 02:07:00,
2013-02-22 13:12:00,75.7,68.4,30.00,SSW,205,6.0,13.0,78,0.00,,,0.21,Wunderground v.1.15,2013-02-22 02:12:00,
2013-02-22 13:17:00,76.1,68.0,30.00,NE,47,5.0,13.0,76,0.00,,,0.21,Wunderground v.1.15,2013-02-22 02:17:00,
2013-02-22 13:22:00,76.8,67.1,30.00,ENE,61,4.0,8.0,72,0.00,,,0.21,Wunderground v.1.15,2013-02-22 02:22:00,
2013-02-22 13:27:00,77.2,67.5,29.99,ESE,116,3.0,11.0,72,0.00,,,0.21,Wunderground v.1.15,2013-02-22 02:27:00,
2013-02-22 13:32:00,77.0,66.9,30.00,South,173,5.0,12.0,71,0.00,,,0.21,Wunderground v.1.15,2013-02-22 02:32:00,
2013-02-22 13:37:00,76.5,66.4,29.99,East,82,5.0,20.0,71,0.00,,,0.21,Wunderground v.1.15,2013-02-22 02:37:00,
2013-02-22 13:42:00,76.4,66.7,29.99,SE,136,6.0,12.0,72,0.00,,,0.21,Wunderground v.1.15,2013-02-22 02:42:00,
2013-02-22 13:47:00,76.1,66.8,29.99,ENE,58,7.0,12.0,73,0.00,,,0.21,Wunderground v.1.15,2013-02-22 02:47:00,
2013-02-22 13:52:00,75.6,66.7,30.00,SE,143,6.0,9.0,74,0.00,,,0.22,Wunderground v.1.15,2013-02-22 02:52:00,
2013-02-22 13:57:00,75.0,66.1,29.99,SSW,210,2.0,11.0,74,0.00,,,0.22,Wunderground v.1.15,2013-02-22 02:57:00,
2013-02-22 14:02:00,75.5,65.8,29.99,SE,131,7.0,10.0,72,0.00,,,0.22,Wunderground v.1.15,2013-02-22 03:02:00,
2013-02-22 14:07:00,76.0,65.9,29.99,ESE,107,6.0,11.0,71,0.00,,,0.22,Wunderground v.1.15,2013-02-22 03:07:00,
2013-02-22 14:12:00,76.3,65.8,29.99,SW,217,8.0,12.0,70,0.00,,,0.22,Wunderground v.1.15,2013-02-22 03:12:00,
2013-02-22 14:17:00,77.0,66.0,29.99,SSE,154,6.0,12.0,69,0.00,,,0.22,Wunderground v.1.15,2013-02-22 03:17:00,
2013-02-22 14:22:00,76.9,66.0,29.98,SSW,193,4.0,10.0,69,0.00,,,0.22,Wunderground v.1.15,2013-02-22 03:22:00,
2013-02-22 14:27:00,77.1,66.6,29.98,ENE,66,1.0,10.0,70,0.00,,,0.22,Wunderground v.1.15,2013-02-22 03:27:00,
2013-02-22 14:32:00,77.3,65.9,29.98,NNE,21,4.0,11.0,68,0.00,,,0.22,Wunderground v.1.15,2013-02-22 03:32:00,
2013-02-22 14:37:00,77.1,66.1,29.97,SE,128,7.0,13.0,69,0.00,,,0.22,Wunderground v.1.15,2013-02-22 03:37:00,
2013-02-22 14:42:00,77.1,65.3,29.98,South,188,9.0,11.0,67,0.00,,,0.22,Wunderground v.1.15,2013-02-22 03:42:00,
2013-02-22 14:47:00,76.8,64.1,29.98,NE,37,8.0,14.0,65,0.00,,,0.22,Wunderground v.1.15,2013-02-22 03:47:00,
2013-02-22 14:52:00,76.2,64.9,29.98,NE,47,5.0,11.0,68,0.00,,,0.22,Wunderground v.1.15,2013-02-22 03:52:00,
2013-02-22 14:57:00,75.6,64.3,29.97,ESE,110,4.0,11.0,68,0.00,,,0.22,Wunderground v.1.15,2013-02-22 03:57:00,
2013-02-22 15:02:00,74.9,64.9,29.97,SE,124,6.0,8.0,71,0.00,,,0.22,Wunderground v.1.15,2013-02-22 04:02:00,
2013-02-22 15:07:00,74.9,65.3,29.97,ENE,72,4.0,10.0,72,0.00,,,0.22,Wunderground v.1.15,2013-02-22 04:07:00,
2013-02-22 15:12:00,75.4,65.7,29.96,WSW,256,4.0,12.0,72,0.00,,,0.22,Wunderground v.1.15,2013-02-22 04:12:00,
2013-02-22 15:17:00,75.8,65.7,29.96,SSE,161,9.0,12.0,71,0.00,,,0.22,Wunderground v.1.15,2013-02-22 04:17:00,
2013-02-22 15:22:00,76.0,65.9,29.96,SSE,147,5.0,9.0,71,0.00,,,0.22,Wunderground v.1.15,2013-02-22 04:22:00,
2013-02-22 15:27:00,75.9,66.2,29.96,ENE,63,4.0,11.0,72,0.00,,,0.22,Wunderground v.1.15,2013-02-22 04:27:00,
2013-02-22 15:32:00,73.6,66.3,29.97,ENE,66,5.0,13.0,78,0.82,,,0.29,Wunderground v.1.15,2013-02-22 04:32:00,
2013-02-22 15:37:00,71.5,66.8,29.97,East,97,1.0,13.0,85,0.11,,,0.29,Wunderground v.1.15,2013-02-22 04:37:00,
2013-02-22 15:43:00,71.2,67.1,29.96,SSE,165,1.0,5.0,87,0.06,,,0.29,Wunderground v.1.15,2013-02-22 04:43:00,
2013-02-22 15:48:00,71.5,67.8,29.96,East,101,3.0,5.0,88,0.04,,,0.29,Wunderground v.1.15,2013-02-22 04:48:00,
2013-02-22 15:53:00,72.1,67.7,29.96,North,8,2.0,7.0,86,0.00,,,0.29,Wunderground v.1.15,2013-02-22 04:53:00,
2013-02-22 15:57:00,72.2,66.0,29.96,SSW,213,4.0,11.0,81,0.00,,,0.29,Wunderground v.1.15,2013-02-22 04:57:00,
2013-02-22 16:00:00,72.2,65.7,29.96,SE,127,4.0,11.0,80,0.00,,,0.29,Wunderground v.1.15,2013-02-22 05:00:00,
2013-02-22 16:05:00,72.3,65.8,29.96,ESE,103,2.0,8.0,80,0.00,,,0.29,Wunderground v.1.15,2013-02-22 05:05:00,
2013-02-22 16:10:00,72.3,65.8,29.97,East,82,3.0,3.0,80,0.00,,,0.29,Wunderground v.1.15,2013-02-22 05:10:00,
2013-02-22 16:15:00,71.2,66.1,29.97,ESE,117,5.0,11.0,84,0.51,,,0.33,Wunderground v.1.15,2013-02-22 05:15:00,
2013-02-22 16:20:00,69.7,65.7,29.98,East,95,8.0,8.0,87,2.53,,,0.43,Wunderground v.1.15,2013-02-22 05:20:00,
2013-02-22 16:25:00,68.2,64.5,29.98,SE,145,7.0,14.0,88,0.59,,,0.50,Wunderground v.1.15,2013-02-22 05:25:00,
2013-02-22 16:30:00,72.3,65.8,29.97,East,90,4.0,9.0,80,0.07,,,-99.99,WeatherLink 5.9.3,2013-02-22 05:30:00,
2013-02-22 16:35:00,66.9,63.9,29.98,WNW,299,3.0,6.0,90,0.16,,,0.53,Wunderground v.1.15,2013-02-22 05:35:00,
2013-02-22 16:40:00,66.7,64.0,29.98,ESE,122,4.0,6.0,91,0.32,,,0.55,Wunderground v.1.15,2013-02-22 05:40:00,
2013-02-22 16:45:00,66.6,64.2,29.98,SW,221,2.0,7.0,92,0.13,,,0.56,Wunderground v.1.15,2013-02-22 05:45:00,
2013-02-22 16:50:00,66.5,64.1,29.97,South,175,3.0,3.0,92,0.10,,,0.56,Wunderground v.1.15,2013-02-22 05:50:00,
2013-02-22 16:55:00,66.4,64.0,29.98,SE,127,3.0,6.0,92,0.05,,,0.56,Wunderground v.1.15,2013-02-22 05:55:00,
2013-02-22 17:00:00,66.5,64.1,29.98,WNW,295,4.0,4.0,92,0.04,,,0.56,Wunderground v.1.15,2013-02-22 06:00:00,
2013-02-22 17:05:00,66.6,64.2,29.97,South,179,3.0,9.0,92,0.00,,,0.56,Wunderground v.1.15,2013-02-22 06:05:00,
2013-02-22 17:11:00,66.5,64.1,29.98,SSE,157,4.0,11.0,92,0.27,,,-99.99,WeatherLink 5.9.3,2013-02-22 06:11:00,
2013-02-22 17:16:00,66.9,64.2,29.98,ENE,60,2.0,8.0,91,0.00,,,0.56,Wunderground v.1.15,2013-02-22 06:16:00,
2013-02-22 17:21:00,67.0,64.6,29.98,ESE,121,1.0,3.0,92,0.36,,,0.59,Wunderground v.1.15,2013-02-22 06:21:00,
2013-02-22 17:26:00,66.9,64.5,29.98,SSW,195,1.0,5.0,92,0.40,,,0.61,Wunderground v.1.15,2013-02-22 06:26:00,
2013-02-22 17:31:00,67.0,64.6,29.98,SSE,157,3.0,10.0,92,0.30,,,-99.99,WeatherLink 5.9.3,2013-02-22 06:31:00,
2013-02-22 17:36:00,66.7,64.6,29.98,East,94,5.0,10.0,93,0.23,,,0.65,Wunderground v.1.15,2013-02-22 06:36:00,
2013-02-22 17:41:00,66.7,64.6,29.98,ESE,112,2.0,5.0,93,0.16,,,-99.99,WeatherLink 5.9.3,2013-02-22 06:41:00,
2013-02-22 17:46:00,66.2,63.5,29.97,SE,138,1.0,6.0,91,0.12,,,0.67,Wunderground v.1.15,2013-02-22 06:46:00,
2013-02-22 17:51:00,66.1,63.4,29.97,SE,140,2.0,4.0,91,0.06,,,0.67,Wunderground v.1.15,2013-02-22 06:51:00,
2013-02-22 17:56:00,66.2,63.5,29.98,NE,55,0.0,6.0,91,0.04,,,0.67,Wunderground v.1.15,2013-02-22 06:56:00,
2013-02-22 18:01:00,66.0,63.3,29.98,East,89,2.0,2.0,91,0.00,,,0.67,Wunderground v.1.15,2013-02-22 07:01:00,
2013-02-22 18:06:00,65.9,63.2,29.98,ESE,103,2.0,5.0,91,0.00,,,0.67,Wunderground v.1.15,2013-02-22 07:06:00,
2013-02-22 18:11:00,65.8,63.1,29.98,NNE,25,0.0,6.0,91,0.00,,,0.67,Wunderground v.1.15,2013-02-22 07:11:00,
2013-02-22 18:16:00,65.8,63.4,29.98,East,86,0.0,6.0,92,0.00,,,0.68,Wunderground v.1.15,2013-02-22 07:16:00,
2013-02-22 18:21:00,65.9,63.5,29.98,SSE,165,0.0,2.0,92,0.00,,,0.68,Wunderground v.1.15,2013-02-22 07:21:00,
2013-02-22 18:26:00,66.0,63.6,29.98,SSE,164,0.0,2.0,92,0.00,,,0.68,Wunderground v.1.15,2013-02-22 07:26:00,
2013-02-22 18:31:00,66.0,63.6,29.98,SSE,160,1.0,2.0,92,0.00,,,0.68,Wunderground v.1.15,2013-02-22 07:31:00,
2013-02-22 18:36:00,66.2,63.8,29.98,East,98,0.0,3.0,92,0.00,,,0.68,Wunderground v.1.15,2013-02-22 07:36:00,
2013-02-22 18:41:00,66.3,63.9,29.98,West,278,0.0,2.0,92,0.00,,,0.68,Wunderground v.1.15,2013-02-22 07:41:00,
2013-02-22 18:46:00,66.4,64.0,29.98,NE,52,0.0,2.0,92,0.00,,,0.68,Wunderground v.1.15,2013-02-22 07:46:00,
2013-02-22 18:51:00,66.5,64.1,29.99,East,80,0.0,1.0,92,0.00,,,0.68,Wunderground v.1.15,2013-02-22 07:51:00,
2013-02-22 18:56:00,66.5,64.1,29.98,East,79,1.0,2.0,92,0.00,,,0.68,Wunderground v.1.15,2013-02-22 07:56:00,
2013-02-22 19:01:00,66.6,64.2,29.98,ENE,59,0.0,1.0,92,0.00,,,0.68,Wunderground v.1.15,2013-02-22 08:01:00,
2013-02-22 19:06:00,66.6,64.2,29.98,NE,52,0.0,3.0,92,0.00,,,0.68,Wunderground v.1.15,2013-02-22 08:06:00,
2013-02-22 19:11:00,66.7,64.6,29.98,South,186,5.0,5.0,93,0.00,,,0.68,Wunderground v.1.15,2013-02-22 08:11:00,
2013-02-22 19:16:00,66.8,64.7,29.98,NE,52,0.0,5.0,93,0.00,,,0.68,Wunderground v.1.15,2013-02-22 08:16:00,
2013-02-22 19:21:00,66.9,64.8,29.98,SW,224,0.0,2.0,93,0.00,,,0.68,Wunderground v.1.15,2013-02-22 08:21:00,
2013-02-22 19:26:00,66.9,64.5,29.98,ENE,61,1.0,4.0,92,0.00,,,0.68,Wunderground v.1.15,2013-02-22 08:26:00,
2013-02-22 19:31:00,67.0,64.6,29.98,ENE,72,1.0,2.0,92,0.00,,,0.68,Wunderground v.1.15,2013-02-22 08:31:00,
2013-02-22 19:36:00,67.1,64.7,29.99,SSE,159,1.0,4.0,92,0.44,,,0.70,Wunderground v.1.15,2013-02-22 08:36:00,
2013-02-22 19:41:00,67.1,64.7,29.99,NE,45,1.0,5.0,92,0.18,,,0.72,Wunderground v.1.15,2013-02-22 08:41:00,
2013-02-22 19:46:00,67.0,64.6,29.99,NE,38,2.0,6.0,92,0.14,,,0.72,Wunderground v.1.15,2013-02-22 08:46:00,
2013-02-22 19:51:00,66.8,64.1,29.99,NE,45,6.0,6.0,91,0.06,,,0.72,Wunderground v.1.15,2013-02-22 08:51:00,
2013-02-22 19:56:00,66.7,63.4,29.99,East,101,1.0,7.0,89,0.04,,,0.72,Wunderground v.1.15,2013-02-22 08:56:00,
2013-02-22 20:01:00,66.6,63.3,29.99,SSE,150,4.0,7.0,89,0.00,,,0.72,Wunderground v.1.15,2013-02-22 09:01:00,
2013-02-22 20:06:00,66.6,63.3,29.99,ENE,75,1.0,7.0,89,0.00,,,0.72,Wunderground v.1.15,2013-02-22 09:06:00,
2013-02-22 20:11:00,66.4,63.1,29.99,ENE,62,0.0,2.0,89,0.00,,,0.72,Wunderground v.1.15,2013-02-22 09:11:00,
2013-02-22 20:16:00,66.4,63.1,29.99,SSW,195,1.0,4.0,89,0.00,,,0.72,Wunderground v.1.15,2013-02-22 09:16:00,
2013-02-22 20:21:00,66.4,63.1,30.00,NNE,21,4.0,4.0,89,0.00,,,0.72,Wunderground v.1.15,2013-02-22 09:21:00,
2013-02-22 20:26:00,66.3,62.6,30.00,SSE,150,5.0,7.0,88,0.00,,,0.73,Wunderground v.1.15,2013-02-22 09:26:00,
2013-02-22 20:32:00,66.1,62.4,29.99,South,171,3.0,3.0,88,0.00,,,0.73,Wunderground v.1.15,2013-02-22 09:32:00,
2013-02-22 20:38:00,65.9,62.2,29.99,SE,145,0.0,3.0,88,0.00,,,0.73,Wunderground v.1.15,2013-02-22 09:38:00,
2013-02-22 20:43:00,65.7,62.0,29.99,South,180,3.0,5.0,88,0.00,,,0.73,Wunderground v.1.15,2013-02-22 09:43:00,
2013-02-22 20:49:00,65.7,62.0,29.99,South,169,3.0,5.0,88,0.00,,,0.73,Wunderground v.1.15,2013-02-22 09:49:00,
2013-02-22 20:54:00,65.8,62.1,30.00,NE,45,10.0,10.0,88,0.00,,,0.73,Wunderground v.1.15,2013-02-22 09:54:00,
2013-02-22 20:59:00,65.9,62.6,30.00,East,89,7.0,10.0,89,0.00,,,0.74,Wunderground v.1.15,2013-02-22 09:59:00,
2013-02-22 21:04:00,65.7,62.7,30.00,NE,52,3.0,7.0,90,0.16,,,0.75,Wunderground v.1.15,2013-02-22 10:04:00,
2013-02-22 21:09:00,65.5,62.8,30.00,ESE,117,1.0,8.0,91,0.11,,,0.76,Wunderground v.1.15,2013-02-22 10:09:00,
2013-02-22 21:15:00,65.3,62.6,30.00,SSE,147,5.0,8.0,91,0.08,,,0.76,Wunderground v.1.15,2013-02-22 10:15:00,
2013-02-22 21:20:00,65.2,62.5,30.00,SSE,148,1.0,8.0,91,0.05,,,0.76,Wunderground v.1.15,2013-02-22 10:20:00,
2013-02-22 21:25:00,65.0,62.6,30.00,SE,128,1.0,5.0,92,0.00,,,0.76,Wunderground v.1.15,2013-02-22 10:25:00,
2013-02-22 21:30:00,64.9,62.5,30.00,SSE,152,2.0,5.0,92,0.00,,,0.76,Wunderground v.1.15,2013-02-22 10:30:00,
2013-02-22 21:35:00,64.8,62.4,29.99,SSE,158,1.0,5.0,92,0.00,,,0.76,Wunderground v.1.15,2013-02-22 10:35:00,
2013-02-22 21:40:00,64.7,62.3,30.00,SSW,210,1.0,5.0,92,0.00,,,0.76,Wunderground v.1.15,2013-02-22 10:40:00,
2013-02-22 21:45:00,64.7,62.3,30.00,SSE,156,2.0,4.0,92,0.00,,,0.76,Wunderground v.1.15,2013-02-22 10:45:00,
2013-02-22 21:50:00,64.6,62.5,29.99,SSE,161,1.0,4.0,93,0.00,,,0.76,Wunderground v.1.15,2013-02-22 10:50:00,
2013-02-22 21:55:00,64.7,62.6,29.99,SSE,155,0.0,3.0,93,0.00,,,0.76,Wunderground v.1.15,2013-02-22 10:55:00,
2013-02-22 22:00:00,64.8,62.7,29.99,South,176,2.0,5.0,93,0.00,,,0.76,Wunderground v.1.15,2013-02-22 11:00:00,
2013-02-22 22:05:00,65.0,62.9,29.99,SSW,196,1.0,3.0,93,0.00,,,0.76,Wunderground v.1.15,2013-02-22 11:05:00,
2013-02-22 22:10:00,64.9,62.8,29.99,SSE,157,2.0,5.0,93,0.03,,,-99.99,WeatherLink 5.9.3,2013-02-22 11:10:00,
2013-02-22 22:16:00,65.4,63.3,29.99,SE,127,3.0,3.0,93,0.00,,,0.77,Wunderground v.1.15,2013-02-22 11:16:00,
2013-02-22 22:21:00,65.8,63.7,29.99,ENE,62,2.0,2.0,93,0.00,,,0.77,Wunderground v.1.15,2013-02-22 11:21:00,
2013-02-22 22:26:00,66.2,63.8,29.99,ESE,121,2.0,4.0,92,0.00,,,0.77,Wunderground v.1.15,2013-02-22 11:26:00,
2013-02-22 22:32:00,66.4,63.7,30.00,ESE,114,5.0,5.0,91,0.00,,,0.77,Wunderground v.1.15,2013-02-22 11:32:00,
2013-02-22 22:38:00,66.4,62.4,29.99,SW,221,1.0,7.0,87,0.00,,,0.77,Wunderground v.1.15,2013-02-22 11:38:00,
2013-02-22 22:43:00,66.3,62.0,29.99,SSE,154,2.0,4.0,86,0.00,,,0.77,Wunderground v.1.15,2013-02-22 11:43:00,
2013-02-22 22:48:00,66.0,62.0,29.99,South,169,0.0,4.0,87,0.00,,,0.78,Wunderground v.1.15,2013-02-22 11:48:00,
2013-02-22 22:53:00,65.7,62.0,29.99,SSE,165,0.0,1.0,88,0.00,,,0.78,Wunderground v.1.15,2013-02-22 11:53:00,
2013-02-22 22:58:00,65.4,62.1,29.99,South,186,0.0,1.0,89,0.00,,,0.78,Wunderground v.1.15,2013-02-22 11:58:00,
2013-02-22 23:03:00,65.1,62.1,29.98,SSE,162,0.0,1.0,90,0.00,,,0.78,Wunderground v.1.15,2013-02-22 12:03:00,
2013-02-22 23:08:00,65.1,62.1,29.98,South,188,0.0,1.0,90,0.00,,,0.78,Wunderground v.1.15,2013-02-22 12:08:00,
2013-02-22 23:13:00,65.0,62.3,29.98,SSW,195,0.0,1.0,91,0.00,,,0.78,Wunderground v.1.15,2013-02-22 12:13:00,
2013-02-22 23:18:00,65.0,62.3,29.98,SSE,155,0.0,1.0,91,0.00,,,0.78,Wunderground v.1.15,2013-02-22 12:18:00,
2013-02-22 23:23:00,65.1,62.7,29.98,South,188,0.0,3.0,92,0.00,,,0.78,Wunderground v.1.15,2013-02-22 12:23:00,
2013-02-22 23:28:00,65.3,62.9,29.98,SE,141,1.0,4.0,92,0.00,,,0.79,Wunderground v.1.15,2013-02-22 12:28:00,
2013-02-22 23:33:00,65.9,63.5,29.98,SSW,195,4.0,6.0,92,0.00,,,0.79,Wunderground v.1.15,2013-02-22 12:33:00,
2013-02-22 23:38:00,66.4,63.4,29.98,NE,47,1.0,10.0,90,0.00,,,0.79,Wunderground v.1.15,2013-02-22 12:38:00,
2013-02-22 23:43:00,66.5,63.2,29.98,ESE,115,3.0,5.0,89,0.04,,,0.80,Wunderground v.1.15,2013-02-22 12:43:00,
2013-02-22 23:48:00,66.5,62.8,29.98,ENE,63,3.0,5.0,88,0.04,,,0.80,Wunderground v.1.15,2013-02-22 12:48:00,
2013-02-22 23:53:00,66.5,63.2,29.97,NE,52,3.0,5.0,89,0.04,,,0.80,Wunderground v.1.15,2013-02-22 12:53:00,
2013-02-22 23:59:00,66.4,63.1,29.97,ESE,117,2.0,7.0,89,0.04,,,0.80,Wunderground v.1.15,2013-02-22 12:59:00,